createdAt,value
2019-05-11T00:00:10.928Z,97965.83
2019-05-11T00:02:39.560Z,97964.37
2019-05-11T00:05:08.284Z,97960.64
2019-05-11T00:07:36.838Z,97963.92
2019-05-11T00:10:07.120Z,97963.84
2019-05-11T00:12:35.749Z,97960.63
2019-05-11T00:15:05.663Z,97948.16
2019-05-11T00:17:34.082Z,97951.01
2019-05-11T00:20:03.073Z,97947.69
2019-05-11T00:22:31.499Z,97947.28
2019-05-11T00:24:59.889Z,97943.41
2019-05-11T00:27:28.536Z,97938.97
2019-05-11T00:29:57.144Z,97936.84
2019-05-11T00:32:25.736Z,97943.84
2019-05-11T00:34:54.541Z,97952.82
2019-05-11T00:37:22.905Z,97951.37
2019-05-11T00:39:51.404Z,97945.14
2019-05-11T00:42:20.097Z,97939.16
2019-05-11T00:44:48.493Z,97938.22
2019-05-11T00:47:16.969Z,97940.56
2019-05-11T00:49:45.895Z,97941.28
2019-05-11T00:52:14.530Z,97948.44
2019-05-11T00:54:43.251Z,97936.53
2019-05-11T00:57:11.645Z,97940.22
2019-05-11T00:59:40.075Z,97937.50
2019-05-11T01:02:08.434Z,97937.72
2019-05-11T01:04:36.839Z,97941.12
2019-05-11T01:07:05.263Z,97941.16
2019-05-11T01:09:33.626Z,97947.44
2019-05-11T01:12:01.985Z,97953.63
2019-05-11T01:14:30.423Z,97958.63
2019-05-11T01:16:58.785Z,97960.66
2019-05-11T01:19:27.225Z,97964.13
2019-05-11T01:21:55.645Z,97959.60
2019-05-11T01:24:24.388Z,97951.70
2019-05-11T01:26:52.730Z,97947.50
2019-05-11T01:29:21.432Z,97948.94
2019-05-11T01:31:49.787Z,97943.31
2019-05-11T01:34:18.497Z,97938.22
2019-05-11T01:36:46.896Z,97925.18
2019-05-11T01:39:15.442Z,97925.34
2019-05-11T01:41:43.773Z,97929.55
2019-05-11T01:44:12.507Z,97939.53
2019-05-11T01:46:40.887Z,97934.00
2019-05-11T01:49:09.224Z,97930.84
2019-05-11T01:51:37.562Z,97932.09
2019-05-11T01:54:05.932Z,97926.83
2019-05-11T01:56:34.294Z,97928.05
2019-05-11T01:59:02.611Z,97917.30
2019-05-11T02:01:31.284Z,97921.34
2019-05-11T02:03:59.570Z,97914.02
2019-05-11T02:06:28.006Z,97913.59
2019-05-11T02:08:56.299Z,97908.73
2019-05-11T02:11:24.987Z,97899.84
2019-05-11T02:13:53.351Z,97888.68
2019-05-11T02:16:21.656Z,97879.99
2019-05-11T02:18:50.246Z,97868.59
2019-05-11T02:21:18.615Z,97884.64
2019-05-11T02:23:46.928Z,97886.84
2019-05-11T02:26:15.236Z,97890.34
2019-05-11T02:28:43.537Z,97894.08
2019-05-11T02:31:11.851Z,97900.12
2019-05-11T02:33:40.233Z,97895.55
2019-05-11T02:36:08.555Z,97895.09
2019-05-11T02:38:36.863Z,97888.51
2019-05-11T02:41:05.264Z,97886.83
2019-05-11T02:43:33.588Z,97892.98
2019-05-11T02:46:01.878Z,97890.89
2019-05-11T02:48:30.177Z,97889.98
2019-05-11T02:50:59.535Z,97890.45
2019-05-11T02:53:29.739Z,97883.18
2019-05-11T02:55:58.535Z,97882.45
2019-05-11T02:58:26.903Z,97882.50
2019-05-11T03:00:55.200Z,97877.22
2019-05-11T03:03:23.518Z,97870.78
2019-05-11T03:05:51.887Z,97860.66
2019-05-11T03:08:20.211Z,97858.73
2019-05-11T03:10:48.511Z,97857.56
2019-05-11T03:13:17.207Z,97864.73
2019-05-11T03:15:45.662Z,97868.81
2019-05-11T03:18:13.987Z,97874.77
2019-05-11T03:20:42.424Z,97881.09
2019-05-11T03:23:10.771Z,97881.70
2019-05-11T03:25:39.074Z,97881.07
2019-05-11T03:28:07.368Z,97883.08
2019-05-11T03:30:36.072Z,97883.08
2019-05-11T03:33:04.392Z,97882.14
2019-05-11T03:35:32.705Z,97876.33
2019-05-11T03:38:01.089Z,97868.41
2019-05-11T03:40:29.393Z,97862.00
2019-05-11T03:42:58.092Z,97863.44
2019-05-11T03:45:26.388Z,97852.51
2019-05-11T03:47:54.853Z,97844.95
2019-05-11T03:50:23.191Z,97846.84
2019-05-11T03:52:51.490Z,97846.81
2019-05-11T03:55:19.791Z,97849.20
2019-05-11T03:57:48.172Z,97852.54
2019-05-11T04:00:17.521Z,97853.38
2019-05-11T04:02:46.258Z,97837.09
2019-05-11T04:05:14.667Z,97832.97
2019-05-11T04:07:42.978Z,97820.11
2019-05-11T04:10:11.543Z,97824.03
2019-05-11T04:12:39.903Z,97823.19
2019-05-11T04:15:08.401Z,97827.82
2019-05-11T04:17:37.161Z,97828.91
2019-05-11T04:20:06.519Z,97840.18
2019-05-11T04:22:34.867Z,97832.20
2019-05-11T04:25:03.560Z,97840.23
2019-05-11T04:27:31.853Z,97846.97
2019-05-11T04:30:00.217Z,97849.09
2019-05-11T04:32:28.526Z,97849.84
2019-05-11T04:34:56.890Z,97851.27
2019-05-11T04:37:25.219Z,97842.80
2019-05-11T04:39:53.524Z,97840.25
2019-05-11T04:42:21.837Z,97834.59
2019-05-11T04:44:52.466Z,97827.00
2019-05-11T04:47:20.215Z,97824.14
2019-05-11T04:49:48.518Z,97826.59
2019-05-11T04:52:16.823Z,97821.61
2019-05-11T04:54:45.140Z,97831.42
2019-05-11T04:57:13.430Z,97827.95
2019-05-11T04:59:42.119Z,97826.77
2019-05-11T05:02:10.432Z,97821.52
2019-05-11T05:04:38.781Z,97821.37
2019-05-11T05:07:10.756Z,97810.72
2019-05-11T05:09:42.518Z,97818.01
2019-05-11T05:12:08.413Z,97814.63
2019-05-11T05:14:37.196Z,97804.50
2019-05-11T05:17:05.494Z,97792.55
2019-05-11T05:19:34.073Z,97793.49
2019-05-11T05:22:02.768Z,97788.59
2019-05-11T05:24:31.358Z,97793.74
2019-05-11T05:26:59.677Z,97796.63
2019-05-11T05:29:28.086Z,97802.35
2019-05-11T05:31:56.368Z,97807.98
2019-05-11T05:34:24.664Z,97799.56
2019-05-11T05:36:53.365Z,97808.02
2019-05-11T05:39:21.674Z,97796.83
2019-05-11T05:41:56.979Z,97796.18
2019-05-11T05:44:20.089Z,97788.83
2019-05-11T05:46:48.434Z,97786.12
2019-05-11T05:49:16.754Z,97782.88
2019-05-11T05:51:45.717Z,97773.24
2019-05-11T05:54:15.333Z,97749.16
2019-05-11T05:56:43.631Z,97751.18
2019-05-11T05:59:11.926Z,97754.80
2019-05-11T06:01:40.332Z,97760.41
2019-05-11T06:04:08.949Z,97770.42
2019-05-11T06:06:37.277Z,97773.39
2019-05-11T06:09:07.155Z,97772.30
2019-05-11T06:11:35.737Z,97767.93
2019-05-11T06:14:04.107Z,97758.50
2019-05-11T06:16:32.435Z,97756.34
2019-05-11T06:19:00.735Z,97752.63
2019-05-11T06:21:29.169Z,97746.31
2019-05-11T06:23:57.503Z,97749.20
2019-05-11T06:26:26.319Z,97737.55
2019-05-11T06:28:54.640Z,97742.71
2019-05-11T06:31:22.998Z,97734.92
2019-05-11T06:33:51.320Z,97727.38
2019-05-11T06:36:19.694Z,97722.47
2019-05-11T06:38:48.021Z,97728.02
2019-05-11T06:41:16.401Z,97728.77
2019-05-11T06:43:59.526Z,97725.16
2019-05-11T06:46:14.807Z,97713.95
2019-05-11T06:48:43.102Z,97713.13
2019-05-11T06:51:11.460Z,97717.39
2019-05-11T06:53:39.754Z,97720.86
2019-05-11T06:56:08.155Z,97725.09
2019-05-11T06:58:36.457Z,97725.64
2019-05-11T07:01:04.761Z,97728.33
2019-05-11T07:03:33.085Z,97724.84
2019-05-11T07:06:01.388Z,97732.77
2019-05-11T07:08:30.000Z,97720.76
2019-05-11T07:10:58.310Z,97728.10
2019-05-11T07:13:26.693Z,97727.33
2019-05-11T07:15:54.995Z,97725.88
2019-05-11T07:18:23.318Z,97725.08
2019-05-11T07:20:51.617Z,97725.69
2019-05-11T07:23:19.933Z,97725.20
2019-05-11T07:25:48.246Z,97724.30
2019-05-11T07:28:16.559Z,97725.27
2019-05-11T07:30:44.923Z,97718.80
2019-05-11T07:33:13.235Z,97719.95
2019-05-11T07:35:41.630Z,97717.91
2019-05-11T07:38:09.923Z,97719.86
2019-05-11T07:40:38.597Z,97719.59
2019-05-11T07:43:09.648Z,97726.89
2019-05-11T07:45:38.670Z,97718.73
2019-05-11T07:48:08.052Z,97721.22
2019-05-11T07:50:38.754Z,97714.30
2019-05-11T07:53:08.161Z,97723.80
2019-05-11T07:55:38.506Z,97719.41
2019-05-11T07:58:07.990Z,97720.86
2019-05-11T08:00:39.755Z,97722.78
2019-05-11T08:03:09.018Z,97735.22
2019-05-11T08:05:38.563Z,97742.55
2019-05-11T08:08:08.671Z,97736.70
2019-05-11T08:10:39.019Z,97734.42
2019-05-11T08:13:09.130Z,97731.95
2019-05-11T08:15:38.362Z,97732.72
2019-05-11T08:18:08.537Z,97732.66
2019-05-11T08:20:38.535Z,97729.11
2019-05-11T08:23:09.074Z,97736.11
2019-05-11T08:25:37.990Z,97744.07
2019-05-11T08:28:11.594Z,97772.84
2019-05-11T08:30:38.147Z,97798.63
2019-05-11T08:33:08.663Z,97823.47
2019-05-11T08:35:38.998Z,97817.79
2019-05-11T08:38:08.837Z,97798.08
2019-05-11T08:40:37.974Z,97816.75
2019-05-11T08:43:08.754Z,97805.06
2019-05-11T08:45:39.376Z,97793.27
2019-05-11T08:48:08.104Z,97783.50
2019-05-11T08:50:38.237Z,97779.91
2019-05-11T08:53:08.602Z,97773.72
2019-05-11T08:55:38.180Z,97771.84
2019-05-11T08:58:07.912Z,97773.42
2019-05-11T09:00:38.765Z,97778.55
2019-05-11T09:03:08.515Z,97787.38
2019-05-11T09:05:38.459Z,97790.04
2019-05-11T09:08:08.190Z,97794.20
2019-05-11T09:10:39.535Z,97796.64
2019-05-11T09:13:08.045Z,97798.32
2019-05-11T09:15:40.243Z,97795.72
2019-05-11T09:18:08.420Z,97797.52
2019-05-11T09:20:37.832Z,97798.68
2019-05-11T09:23:08.178Z,97798.78
2019-05-11T09:25:38.486Z,97792.68
2019-05-11T09:28:08.565Z,97795.39
2019-05-11T09:30:37.781Z,97792.61
2019-05-11T09:33:08.568Z,97793.22
2019-05-11T09:35:47.595Z,97798.26
2019-05-11T09:38:08.113Z,97798.67
2019-05-11T09:40:38.592Z,97809.02
2019-05-11T09:43:08.541Z,97816.91
2019-05-11T09:45:47.479Z,97813.37
2019-05-11T09:48:08.579Z,97819.39
2019-05-11T09:50:38.767Z,97825.08
2019-05-11T09:53:08.485Z,97826.24
2019-05-11T09:55:38.892Z,97830.21
2019-05-11T09:58:08.535Z,97823.45
2019-05-11T10:00:38.875Z,97828.42
2019-05-11T10:03:08.244Z,97825.91
2019-05-11T10:05:38.236Z,97821.05
2019-05-11T10:08:07.864Z,97827.86
2019-05-11T10:10:38.350Z,97822.17
2019-05-11T10:13:08.118Z,97820.39
2019-05-11T10:15:38.550Z,97820.95
2019-05-11T10:18:08.177Z,97824.03
2019-05-11T10:20:39.028Z,97815.31
2019-05-11T10:23:08.356Z,97808.13
2019-05-11T10:25:39.117Z,97810.80
2019-05-11T10:28:08.680Z,97827.41
2019-05-11T10:30:38.698Z,97832.41
2019-05-11T10:33:08.257Z,97825.42
2019-05-11T10:35:37.810Z,97832.40
2019-05-11T10:38:08.996Z,97828.08
2019-05-11T10:40:38.711Z,97828.43
2019-05-11T10:43:07.984Z,97823.17
2019-05-11T10:45:37.934Z,97826.44
2019-05-11T10:48:08.827Z,97824.11
2019-05-11T10:50:38.053Z,97823.34
2019-05-11T10:53:08.021Z,97818.35
2019-05-11T10:55:38.723Z,97818.54
2019-05-11T10:58:08.686Z,97818.72
2019-05-11T11:00:38.894Z,97821.30
2019-05-11T11:03:08.440Z,97818.05
2019-05-11T11:05:38.525Z,97817.08
2019-05-11T11:08:08.262Z,97818.72
2019-05-11T11:10:37.924Z,97814.92
2019-05-11T11:13:08.304Z,97815.44
2019-05-11T11:15:38.098Z,97812.41
2019-05-11T11:18:08.602Z,97816.07
2019-05-11T11:20:38.434Z,97821.74
2019-05-11T11:23:08.839Z,97820.25
2019-05-11T11:25:37.650Z,97816.06
2019-05-11T11:28:08.284Z,97814.64
2019-05-11T11:30:37.874Z,97806.52
2019-05-11T11:33:07.975Z,97800.11
2019-05-11T11:35:38.515Z,97799.33
2019-05-11T11:38:08.678Z,97792.59
2019-05-11T11:40:38.694Z,97791.07
2019-05-11T11:43:08.632Z,97775.05
2019-05-11T11:48:08.666Z,97775.34
2019-05-11T11:50:37.791Z,97771.10
2019-05-11T11:53:08.424Z,97774.64
2019-05-11T11:55:38.848Z,97766.53
2019-05-11T11:58:08.269Z,97759.58
2019-05-11T12:00:39.182Z,97761.68
2019-05-11T12:03:08.142Z,97759.34
2019-05-11T12:05:38.648Z,97758.21
2019-05-11T12:08:08.331Z,97754.48
2019-05-11T12:10:37.947Z,97754.02
2019-05-11T12:13:08.649Z,97750.02
2019-05-11T12:15:38.788Z,97756.06
2019-05-11T12:18:08.278Z,97758.91
2019-05-11T12:20:38.993Z,97753.80
2019-05-11T12:23:08.795Z,97750.17
2019-05-11T12:25:40.380Z,97750.67
2019-05-11T12:28:08.065Z,97753.15
2019-05-11T12:30:37.656Z,97749.41
2019-05-11T12:33:08.247Z,97739.18
2019-05-11T12:35:37.753Z,97739.73
2019-05-11T12:38:07.808Z,97738.95
2019-05-11T12:40:38.695Z,97743.24
2019-05-11T12:43:08.190Z,97737.49
2019-05-11T12:45:37.633Z,97735.02
2019-05-11T12:48:08.837Z,97736.87
2019-05-11T12:50:37.927Z,97732.96
2019-05-11T12:53:08.042Z,97730.05
2019-05-11T12:55:40.882Z,97724.78
2019-05-11T12:58:09.314Z,97725.52
2019-05-11T13:00:39.205Z,97715.99
2019-05-11T13:03:08.238Z,97723.45
2019-05-11T13:05:37.814Z,97715.95
2019-05-11T13:08:07.998Z,97718.98
2019-05-11T13:10:37.637Z,97706.37
2019-05-11T13:13:08.689Z,97703.16
2019-05-11T13:15:38.735Z,97703.67
2019-05-11T13:18:08.494Z,97706.92
2019-05-11T13:20:37.792Z,97699.36
2019-05-11T13:23:08.042Z,97706.76
2019-05-11T13:25:38.606Z,97696.87
2019-05-11T13:28:08.523Z,97703.44
2019-05-11T13:30:38.201Z,97703.09
2019-05-11T13:33:08.567Z,97700.75
2019-05-11T13:35:37.665Z,97696.03
2019-05-11T13:38:08.510Z,97688.80
2019-05-11T13:40:38.171Z,97687.19
2019-05-11T13:43:08.208Z,97686.78
2019-05-11T13:45:38.524Z,97681.84
2019-05-11T13:48:08.458Z,97679.39
2019-05-11T13:50:38.698Z,97678.72
2019-05-11T13:53:07.722Z,97672.69
2019-05-11T13:55:36.181Z,97679.23
2019-05-11T13:58:04.472Z,97673.86
2019-05-11T14:00:32.857Z,97678.05
2019-05-11T14:03:02.802Z,97672.91
2019-05-11T14:05:31.179Z,97682.75
2019-05-11T14:14:08.593Z,97663.84
2019-05-11T14:16:37.860Z,97662.61
2019-05-11T14:19:08.637Z,97656.30
2019-05-11T14:21:38.464Z,97656.58
2019-05-11T14:24:07.754Z,97664.13
2019-05-11T14:26:38.403Z,97663.38
2019-05-11T14:29:08.466Z,97669.23
2019-05-11T14:31:38.674Z,97698.93
2019-05-11T14:34:08.806Z,97710.07
2019-05-11T14:36:38.735Z,97745.41
2019-05-11T14:39:08.347Z,97747.20
2019-05-11T14:41:38.003Z,97772.88
2019-05-11T14:44:08.904Z,97779.45
2019-05-11T14:46:38.423Z,97786.21
2019-05-11T14:49:07.881Z,97803.21
2019-05-11T14:51:38.831Z,97792.23
2019-05-11T14:54:08.249Z,97800.80
2019-05-11T14:56:37.981Z,97795.15
2019-05-11T14:59:09.064Z,97801.05
2019-05-11T15:01:38.126Z,97810.25
2019-05-11T15:04:09.138Z,97812.84
2019-05-11T15:06:38.631Z,97816.76
2019-05-11T15:09:08.249Z,97790.58
2019-05-11T15:11:38.639Z,97802.27
2019-05-11T15:14:08.113Z,97803.63
2019-05-11T15:16:38.414Z,97803.22
2019-05-11T15:19:08.071Z,97830.99
2019-05-11T15:21:38.509Z,97834.68
2019-05-11T15:24:09.016Z,97835.39
2019-05-11T15:26:38.172Z,97835.63
2019-05-11T15:29:08.100Z,97838.26
2019-05-11T15:31:38.162Z,97843.91
2019-05-11T15:34:08.635Z,97844.30
2019-05-11T15:36:38.703Z,97845.20
2019-05-11T15:39:07.927Z,97853.34
2019-05-11T15:41:38.610Z,97847.48
2019-05-11T15:44:11.352Z,97858.87
2019-05-11T15:46:38.737Z,97866.77
2019-05-11T15:49:08.823Z,97875.78
2019-05-11T15:51:40.767Z,97890.30
2019-05-11T15:54:07.918Z,97902.56
2019-05-11T15:56:38.468Z,97922.47
2019-05-11T15:59:08.722Z,97937.14
2019-05-11T16:01:40.760Z,97943.07
2019-05-11T16:04:08.889Z,97948.01
2019-05-11T16:06:36.762Z,97960.36
2019-05-11T16:09:08.358Z,97967.66
2019-05-11T16:11:38.887Z,97977.82
2019-05-11T16:14:08.543Z,97998.80
2019-05-11T16:16:39.059Z,97994.48
2019-05-11T16:19:13.938Z,97997.34
2019-05-11T16:21:38.334Z,97992.92
2019-05-11T16:24:07.982Z,98010.50
2019-05-11T16:26:36.685Z,98007.41
2019-05-11T16:29:05.091Z,98024.85
2019-05-11T16:31:33.620Z,97558.03
2019-05-11T16:34:02.769Z,98018.64
2019-05-11T16:36:31.460Z,98030.48
2019-05-11T16:38:59.929Z,98028.59
2019-05-11T16:41:29.073Z,98038.85
2019-05-11T16:43:58.701Z,98013.19
2019-05-11T16:46:28.419Z,98011.63
2019-05-11T16:48:57.882Z,98011.77
2019-05-11T16:51:28.478Z,98013.66
2019-05-11T16:53:58.618Z,98023.58
2019-05-11T16:56:26.590Z,98034.20
2019-05-11T16:58:55.115Z,98036.34
2019-05-11T17:01:23.584Z,98042.45
2019-05-11T17:03:51.907Z,98053.34
2019-05-11T17:06:20.207Z,98053.81
2019-05-11T17:08:48.806Z,98062.06
2019-05-11T17:11:18.647Z,98062.77
2019-05-11T17:13:48.380Z,98071.53
2019-05-11T17:16:17.906Z,98061.23
2019-05-11T17:18:48.315Z,98072.08
2019-05-11T17:21:18.363Z,98067.69
2019-05-11T17:23:48.741Z,98073.77
2019-05-11T17:26:19.003Z,98066.78
2019-05-11T17:28:48.972Z,98063.83
2019-05-11T17:31:18.787Z,98059.34
2019-05-11T17:33:47.770Z,98069.11
2019-05-11T17:36:18.466Z,98063.23
2019-05-11T17:38:47.937Z,98078.19
2019-05-11T17:41:16.397Z,98067.72
2019-05-11T17:43:44.775Z,98070.13
2019-05-11T17:46:13.440Z,98066.26
2019-05-11T17:48:42.066Z,98065.75
2019-05-11T17:51:21.339Z,98066.66
2019-05-11T17:53:40.478Z,98074.73
2019-05-11T17:56:08.793Z,98094.23
2019-05-11T17:58:37.904Z,98094.73
2019-05-11T18:01:09.211Z,98101.93
2019-05-11T18:03:38.479Z,98107.46
2019-05-11T18:06:08.500Z,98106.75
2019-05-11T18:08:37.324Z,98119.16
2019-05-11T18:11:08.187Z,98123.50
2019-05-11T18:13:38.498Z,98131.91
2019-05-11T18:16:08.483Z,98133.44
2019-05-11T18:18:37.810Z,98138.22
2019-05-11T18:21:08.494Z,98134.77
2019-05-11T18:23:38.570Z,98134.08
2019-05-11T18:26:08.619Z,98139.22
2019-05-11T18:28:37.855Z,98148.98
2019-05-11T18:31:06.509Z,98146.36
2019-05-11T18:33:35.154Z,98153.35
2019-05-11T18:36:03.471Z,98153.47
2019-05-11T18:38:31.770Z,98158.50
2019-05-11T18:41:00.088Z,98169.59
2019-05-11T18:43:28.386Z,98177.66
2019-05-11T18:45:58.120Z,98182.70
2019-05-11T18:48:28.995Z,98180.08
2019-05-11T18:50:58.906Z,98188.45
2019-05-11T18:53:28.780Z,98197.99
2019-05-11T18:55:59.047Z,98204.03
2019-05-11T18:58:27.841Z,98206.54
2019-05-11T19:00:56.290Z,98212.19
2019-05-11T19:03:24.616Z,98214.53
2019-05-11T19:05:53.060Z,98214.39
2019-05-11T19:08:21.817Z,98218.31
2019-05-11T19:10:50.404Z,98226.49
2019-05-11T19:13:18.729Z,98224.39
2019-05-11T19:15:48.749Z,98210.67
2019-05-11T19:18:17.134Z,98214.12
2019-05-11T19:20:49.113Z,98216.91
2019-05-11T19:23:15.703Z,98223.17
2019-05-11T19:25:44.203Z,98220.22
2019-05-11T19:28:12.508Z,98213.41
2019-05-11T19:30:40.810Z,98209.25
2019-05-11T19:33:11.136Z,98206.84
2019-05-11T19:35:39.350Z,98221.91
2019-05-11T19:38:08.676Z,98225.58
2019-05-11T19:40:38.604Z,98237.78
2019-05-11T19:43:08.118Z,98230.27
2019-05-11T19:45:38.467Z,98240.87
2019-05-11T19:48:08.411Z,98245.61
2019-05-11T19:50:40.305Z,98244.12
2019-05-11T19:53:08.438Z,98249.23
2019-05-11T19:55:36.944Z,98242.36
2019-05-11T19:58:05.314Z,98247.76
2019-05-11T20:00:34.321Z,98239.83
2019-05-11T20:03:05.370Z,98242.20
2019-05-11T20:05:33.699Z,98242.24
2019-05-11T20:08:01.997Z,98250.89
2019-05-11T20:10:30.321Z,98257.95
2019-05-11T20:12:59.048Z,98252.47
2019-05-11T20:15:27.794Z,98243.39
2019-05-11T20:17:58.463Z,98246.23
2019-05-11T20:20:28.249Z,98252.45
2019-05-11T20:22:58.371Z,98256.90
2019-05-11T20:25:28.778Z,98244.34
2019-05-11T20:27:58.469Z,98245.98
2019-05-11T20:30:27.185Z,98249.97
2019-05-11T20:32:55.983Z,98242.87
2019-05-11T20:35:24.280Z,98232.76
2019-05-11T20:37:52.602Z,98241.26
2019-05-11T20:40:20.908Z,98240.08
2019-05-11T20:42:49.356Z,98241.30
2019-05-11T20:45:18.601Z,98246.88
2019-05-11T20:47:48.688Z,98249.07
2019-05-11T20:50:18.413Z,98248.70
2019-05-11T20:52:48.679Z,98247.42
2019-05-11T20:55:18.149Z,98246.99
2019-05-11T20:57:48.599Z,98254.73
2019-05-11T21:00:18.771Z,98258.67
2019-05-11T21:02:48.658Z,98258.45
2019-05-11T21:05:18.158Z,98255.60
2019-05-11T21:07:46.800Z,98260.84
2019-05-11T21:10:15.380Z,98262.39
2019-05-11T21:12:43.747Z,98257.17
2019-05-11T21:15:12.694Z,98266.98
2019-05-11T21:17:41.011Z,98273.09
2019-05-11T21:20:10.505Z,98269.73
2019-05-11T21:22:40.632Z,98277.87
2019-05-11T21:25:09.538Z,98282.94
2019-05-11T21:27:38.790Z,98282.48
2019-05-11T21:30:09.690Z,98284.31
2019-05-11T21:32:40.179Z,98291.41
2019-05-11T21:35:09.914Z,98293.72
2019-05-11T21:37:39.045Z,98288.70
2019-05-11T21:40:08.947Z,98290.98
2019-05-11T21:42:38.905Z,98292.81
2019-05-11T21:45:09.681Z,98292.95
2019-05-11T21:47:39.118Z,98292.80
2019-05-11T21:50:09.769Z,98289.95
2019-05-11T21:52:38.916Z,98294.86
2019-05-11T21:55:09.662Z,98293.20
2019-05-11T21:57:38.770Z,98292.87
2019-05-11T22:00:09.266Z,98292.59
2019-05-11T22:02:38.589Z,98293.23
2019-05-11T22:05:08.296Z,98284.34
2019-05-11T22:07:38.798Z,98276.78
2019-05-11T22:10:08.895Z,98280.89
2019-05-11T22:12:38.699Z,98277.70
2019-05-11T22:15:09.709Z,98274.32
2019-05-11T22:17:39.841Z,98272.73
2019-05-11T22:20:08.759Z,98271.87
2019-05-11T22:22:38.965Z,98273.47
2019-05-11T22:25:08.067Z,98268.36
2019-05-11T22:27:38.615Z,98266.12
2019-05-11T22:30:08.517Z,98268.54
2019-05-11T22:32:38.306Z,98262.58
2019-05-11T22:35:08.546Z,98263.47
2019-05-11T22:37:38.732Z,98265.19
2019-05-11T22:40:08.396Z,98259.81
2019-05-11T22:42:37.766Z,98263.05
2019-05-11T22:45:09.672Z,98268.48
2019-05-11T22:47:39.329Z,98268.89
2019-05-11T22:50:10.939Z,98266.31
2019-05-11T22:52:40.673Z,98257.65
2019-05-11T22:55:11.874Z,98257.89
2019-05-11T22:57:39.660Z,98257.27
2019-05-11T23:00:10.498Z,98259.13
2019-05-11T23:02:38.798Z,98258.79
2019-05-11T23:05:08.485Z,98261.80
2019-05-11T23:07:41.118Z,98259.27
2019-05-11T23:10:09.276Z,98260.17
2019-05-11T23:12:38.360Z,98258.84
2019-05-11T23:15:13.235Z,98265.70
2019-05-11T23:17:42.071Z,98269.58
2019-05-11T23:20:10.830Z,98267.94
2019-05-11T23:22:57.000Z,98276.94
2019-05-11T23:25:18.719Z,98275.45
2019-05-11T23:27:48.529Z,98273.30
2019-05-11T23:30:19.625Z,98278.03
2019-05-11T23:32:48.648Z,98278.87
2019-05-11T23:35:18.828Z,98275.60
2019-05-11T23:37:49.597Z,98287.19
2019-05-11T23:40:18.455Z,98285.77
2019-05-11T23:42:48.922Z,98289.45
2019-05-11T23:45:18.857Z,98292.64
2019-05-11T23:47:48.682Z,98290.13
2019-05-11T23:50:18.957Z,98287.70
2019-05-11T23:52:50.173Z,98281.91
2019-05-11T23:55:19.067Z,98276.64
2019-05-11T23:57:49.016Z,98279.10
